Gryphon A — MQSY9 — position and weather

sailwx.info

Track history (hours):
 
Tides and Currents Weather Stations Pressure Air Temp Water Temp Dewpoint Dewpoint Depression Visibility Wind Speed Wind Dir Waves Ship Positions

Gryphon A

Last reported at 2017-Dec-11 16:00 UTC. Time now 2017-Dec-14 08:13 UTC.
Position N 59°18' E 001°30'.

Length 260 m; draft 13.5 m.

Type: Ship (hazmat cat A). MMSI: 235010630.

Wind from 180 at 12 knots

Air temperature 5.6 ° C
Visibility: greater than 27.0 NM
Dewpoint 0.9 ° C

Date/timePositionNaut miles runAvg speedWind from/ knotsBaromVisibWave heightAir tempDewpointWater temp
2017-Dec-11 16:00N 59°18' E 001°30'0 0.0 180 / 12 27.0 5.6 0.9
2017-Dec-11 15:00N 59°18' E 001°30'0 0.0 170 / 11 27.0 5.5 0.9
2017-Dec-11 14:00N 59°18' E 001°30'0 0.0 160 / 12 27.0 5.7 1.0
2017-Dec-11 13:00N 59°18' E 001°30'0 0.0 170 / 10 27.0 5.8 1.1
2017-Dec-11 12:00N 59°18' E 001°30'0 0.0 180 / 11 27.0 5.7 1.2
2017-Dec-11 11:00N 59°18' E 001°30'0 0.0 170 / 13 27.0 5.2 0.6
2017-Dec-11 10:00N 59°18' E 001°30'0 0.0 190 / 13 27.0 5.9 1.1
2017-Dec-11 09:00N 59°18' E 001°30'0 0.0 180 / 13 27.0 5.6 1.0
2017-Dec-11 08:00N 59°18' E 001°30'0 0.0 170 / 14 27.0 5.6 1.2
2017-Dec-11 07:00N 59°18' E 001°30'0 0.0 180 / 16 27.0 5.7 1.4
2017-Dec-11 06:00N 59°18' E 001°30'0 0.0 190 / 15 27.0 5.6 1.5
2017-Dec-11 05:00N 59°18' E 001°30'0 0.0 180 / 16 27.0 5.6 1.6
2017-Dec-11 04:00N 59°18' E 001°30'0 0.0 190 / 15 27.0 5.4 1.7
2017-Dec-11 03:00N 59°18' E 001°30'0 0.0 200 / 20 27.0 5.0 1.2
2017-Dec-11 02:00N 59°18' E 001°30'0 0.0 190 / 19 10.8 5.2 1.4
2017-Dec-11 01:00N 59°18' E 001°30'0 0.0 190 / 15 27.0 5.2 1.4
2017-Dec-11 00:00N 59°18' E 001°30'0 0.0 190 / 17 27.0 5.2 1.2
2017-Dec-10 23:00N 59°18' E 001°30'0 0.0 190 / 15 27.0 5.2 1.4
2017-Dec-10 22:00N 59°18' E 001°30'0 0.0 200 / 16 27.0 5.0 1.3
2017-Dec-10 21:00N 59°18' E 001°30'0 0.0 210 / 12 27.0 5.0 1.3
2017-Dec-10 20:00N 59°18' E 001°30'0 0.0 170 / 8 2.2 4.9 1.0
2017-Dec-10 19:00N 59°18' E 001°30'0 0.0 200 / 7 27.0 5.2 1.1
2017-Dec-10 18:00N 59°18' E 001°30'0 0.0 180 / 7 27.0 5.3 1.2
2017-Dec-10 17:00N 59°18' E 001°30'0 0.0 180 / 8 27.0 5.2 0.9
2017-Dec-10 16:00N 59°18' E 001°30'0 0.0 210 / 4 27.0 4.5 0.2
2017-Dec-10 15:00N 59°18' E 001°30'0 0.0 210 / 6 27.0 4.8 0.4
2017-Dec-10 14:00N 59°18' E 001°30'0 0.0 220 / 6 27.0 4.9 0.4
2017-Dec-10 13:00N 59°18' E 001°30'0 0.0 220 / 7 27.0 4.7 0.4
2017-Dec-10 12:00N 59°18' E 001°30'0 0.0 240 / 8 27.0 4.5 0.7
2017-Dec-10 11:00N 59°18' E 001°30'0 0.0 260 / 9 27.0 4.4 1.0
2017-Dec-10 10:00N 59°18' E 001°30'0 0.0 230 / 10 27.0 4.4 1.3
2017-Dec-10 09:00N 59°18' E 001°30'0 0.0 230 / 11 27.0 4.4 1.4
2017-Dec-10 08:00N 59°18' E 001°30'0 0.0 240 / 11 27.0 4.1 1.2
2017-Dec-10 07:00N 59°18' E 001°30'0 0.0 260 / 8 1.1 3.3 0.2
2017-Dec-10 06:00N 59°18' E 001°30'0 0.0 270 / 18 2.2 3.1-0.3
2017-Dec-10 05:00N 59°18' E 001°30'0 0.0 230 / 17 10.8 3.1-0.5
2017-Dec-10 04:00N 59°18' E 001°30'0 0.0 260 / 18 27.0 3.3-0.6
2017-Dec-10 03:00N 59°18' E 001°30'0 0.0 270 / 22 10.8 3.3-0.9
2017-Dec-10 02:00N 59°18' E 001°30'0 0.0 270 / 18 27.0 3.4-1.0
2017-Dec-10 01:00N 59°18' E 001°30'0 0.0 260 / 19 27.0 3.3-1.2
2017-Dec-10 00:00N 59°18' E 001°30'0 0.0 280 / 21 27.0 2.9-1.6
2017-Dec-09 23:00N 59°18' E 001°30'0 0.0 300 / 19 27.0 3.1-1.8
2017-Dec-09 22:00N 59°18' E 001°30'0 0.0 300 / 20 27.0 3.4-1.4
2017-Dec-09 21:00N 59°18' E 001°30'0 0.0 280 / 13 27.0 2.7-1.7
2017-Dec-09 20:00N 59°18' E 001°30'0 0.0 290 / 14 1.1 2.2-2.3
2017-Dec-09 19:00N 59°18' E 001°30'0 0.0 320 / 25 1.1 2.1-3.4
2017-Dec-09 18:00N 59°18' E 001°30'0 0.0 320 / 22 27.0 2.4-3.3
2017-Dec-09 17:00N 59°18' E 001°30'0 0.0 290 / 23 10.8 2.9-2.7
2017-Dec-09 16:00N 59°18' E 001°30'0 0.0 330 / 22 10.8 3.4-2.1
2017-Dec-09 15:00N 59°18' E 001°30'0 0.0 310 / 24 10.8 3.8-1.4
2017-Dec-09 14:00N 59°18' E 001°30'0 0.0 320 / 24 10.8 3.6-1.1
2017-Dec-09 13:00N 59°18' E 001°30'0 0.0 310 / 28 10.8 3.5-0.9
2017-Dec-09 12:00N 59°18' E 001°30'0 0.0 330 / 30 10.8 2.5-1.6
2017-Dec-09 11:00N 59°18' E 001°30'0 0.0 310 / 27 10.8 2.9-1.2
2017-Dec-09 10:00N 59°18' E 001°30'0 0.0 340 / 28 2.2 2.9-1.6
2017-Dec-09 09:00N 59°18' E 001°30'0 0.0 330 / 27 10.8 3.2-1.2
2017-Dec-09 08:00N 59°18' E 001°30'0 0.0 310 / 25 10.8 2.8-1.5
2017-Dec-09 07:00N 59°18' E 001°30'0 0.0 330 / 26 10.8 3.5-0.8
2017-Dec-09 06:00N 59°18' E 001°30'0 0.0 300 / 32 10.8 3.4-1.0
2017-Dec-09 05:00N 59°18' E 001°30'0 0.0 320 / 31 5.4 3.2-1.1
2017-Dec-09 04:00N 59°18' E 001°30'0 0.0 330 / 33 5.4 3.7-0.5
2017-Dec-09 03:00N 59°18' E 001°30'0 0.0 330 / 30 2.2 3.1-0.9
2017-Dec-09 02:00N 59°18' E 001°30'0 0.0 330 / 29 10.8 4.0-0.3
2017-Dec-09 01:00N 59°18' E 001°30'0 0.0 330 / 32 10.8 4.6-0.1
2017-Dec-09 00:00N 59°18' E 001°30'0 0.0 320 / 33 10.8 5.1 0.3
2017-Dec-08 23:00N 59°18' E 001°30'0 0.0 330 / 35 10.8 4.9 0.4
2017-Dec-08 22:00N 59°18' E 001°30'0 0.0 330 / 39 5.4 4.9 0.3
2017-Dec-08 21:00N 59°18' E 001°30'0 0.0 330 / 39 2.2 4.2-0.3
2017-Dec-08 20:00N 59°18' E 001°30'0 0.0 330 / 37 5.4 6.0 1.5
2017-Dec-08 19:00N 59°18' E 001°30'0 0.0 340 / 37 5.4 5.9 1.5
2017-Dec-08 18:00N 59°18' E 001°30'0 0.0 330 / 35 5.4 6.1 1.9
2017-Dec-08 17:00N 59°18' E 001°30'0 0.0 340 / 28 5.4 5.1 1.0
2017-Dec-08 16:00N 59°18' E 001°30'0 0.0 340 / 29 10.8 5.4 1.4
2017-Dec-08 15:00N 59°18' E 001°30'0 0.0 320 / 30 5.4 6.0 2.0
2017-Dec-08 14:00N 59°18' E 001°30'0 0.0 320 / 36 5.4 5.5 1.5
2017-Dec-08 13:00N 59°18' E 001°30'0 0.0 330 / 31 10.8 5.6 1.5
2017-Dec-08 12:00N 59°18' E 001°30'0 0.0 300 / 33 10.8 5.2 1.0
2017-Dec-08 11:00N 59°18' E 001°30'0 0.0 300 / 37 5.4 5.4 1.3
2017-Dec-08 10:00N 59°18' E 001°30'0 0.0 300 / 39 5.4 4.8 0.8
2017-Dec-08 09:00N 59°18' E 001°30'0 0.0 300 / 44 5.4 5.0 1.4
2017-Dec-08 08:00N 59°18' E 001°30'0 0.0 310 / 44 2.2 4.3 1.8
2017-Dec-08 07:00N 59°18' E 001°30'0 0.0 330 / 41 1.1 3.0 1.1
2017-Dec-08 06:00N 59°18' E 001°30'0 0.0 320 / 45 2.2 4.2 1.6
2017-Dec-08 05:00N 59°18' E 001°30'0 0.0 320 / 39 2.2 4.1-0.0
2017-Dec-08 04:00N 59°18' E 001°30'0 0.0 310 / 34 5.4 5.2 1.1
2017-Dec-08 03:00N 59°18' E 001°30'0 0.0 300 / 34 5.4 5.0 0.9
2017-Dec-08 02:00N 59°18' E 001°30'0 0.0 300 / 37 5.4 4.7 0.3
2017-Dec-08 01:00N 59°18' E 001°30'0 0.0 300 / 39 2.2 5.2 1.1
2017-Dec-08 00:00N 59°18' E 001°30'0 0.0 300 / 37 5.4 4.8 1.7
2017-Dec-07 23:00N 59°18' E 001°30'0 0.0 300 / 41 5.4 4.7 2.4
2017-Dec-07 22:00N 59°18' E 001°30'0 0.0 300 / 44 2.2 5.2 3.7
2017-Dec-07 21:00N 59°18' E 001°30'0 0.0 300 / 45 2.2 5.4 3.5
2017-Dec-07 20:00N 59°18' E 001°30'0 0.0 300 / 52 2.2 4.9 3.8
2017-Dec-07 19:00N 59°18' E 001°30'0 0.0 310 / 51 0.5 5.3 3.0
2017-Dec-07 18:00N 59°18' E 001°30'0 0.0 300 / 47 1.1 5.6 3.1
2017-Dec-07 17:00N 59°18' E 001°30'0 0.0 280 / 45 2.2 6.1 3.4
2017-Dec-07 16:00N 59°18' E 001°30'0 0.0 260 / 38 10.8 6.6 2.7
2017-Dec-07 15:00N 59°18' E 001°30'0 0.0 260 / 31 10.8 7.1 2.6
2017-Dec-07 14:00N 59°18' E 001°30'0 0.0 250 / 37 5.4 7.2 3.6
2017-Dec-07 13:00N 59°18' E 001°30'0 0.0 230 / 40 2.2 7.3 4.2
2017-Dec-07 12:00N 59°18' E 001°30'0 0.0 220 / 46 1.1 6.9 2.8
2017-Dec-07 11:00N 59°18' E 001°30'0 0.0 220 / 44 2.2 7.7 2.2
2017-Dec-07 10:00N 59°18' E 001°30'0 0.0 230 / 42 27.0 8.5 3.6
2017-Dec-07 09:00N 59°18' E 001°30'0 0.0 210 / 38 5.4 8.3 3.2
2017-Dec-07 08:00N 59°18' E 001°30'0 0.0 240 / 32 5.4 7.9 5.9
2017-Dec-07 07:00N 59°18' E 001°30'0 0.0 250 / 26 5.4 8.3 7.2
2017-Dec-07 06:00N 59°18' E 001°30'0 0.0 230 / 32 2.2 10.0 9.0
2017-Dec-07 05:00N 59°18' E 001°30'0 0.0 210 / 37 1.1 10.3 9.1
2017-Dec-07 04:00N 59°18' E 001°30'0 0.0 200 / 36 1.1 10.3 9.0
2017-Dec-07 03:00N 59°18' E 001°30'0 0.0 200 / 35 1.1 10.1 8.7
2017-Dec-07 02:00N 59°18' E 001°30'0 0.0 200 / 33 2.2 10.1 8.7
2017-Dec-07 01:00N 59°18' E 001°30'0 0.0 210 / 31 2.2 10.0 8.6
2017-Dec-07 00:00N 59°18' E 001°30'0 0.0 210 / 33 2.2 10.0 8.6
2017-Dec-06 23:00N 59°18' E 001°30'0 0.0 210 / 30 2.2 9.8 8.5
2017-Dec-06 22:00N 59°18' E 001°30'0 0.0 210 / 31 1.1 9.7 8.2
2017-Dec-06 21:00N 59°18' E 001°30'0 0.0 210 / 33 5.4 9.9 8.2
2017-Dec-06 20:00N 59°18' E 001°30'0 0.0 220 / 30 5.4 9.6 8.0
2017-Dec-06 19:00N 59°18' E 001°30'0 0.0 220 / 28 2.2 9.5 7.9
2017-Dec-06 18:00N 59°18' E 001°30'0 0.0 220 / 26 2.2 9.3 7.8
2017-Dec-06 17:00N 59°18' E 001°30'0 0.0 210 / 27 5.4 9.2 7.8
2017-Dec-06 16:00N 59°18' E 001°30'0 0.0 210 / 25 5.4 9.0 7.7
2017-Dec-06 15:00N 59°18' E 001°30'0 0.0 220 / 24 5.4 9.1 7.9
2017-Dec-06 14:00N 59°18' E 001°30'0 0.0 220 / 24 2.2 9.1 8.1
2017-Dec-06 13:00N 59°18' E 001°30'0 0.0 230 / 20 5.4 9.1 8.2
2017-Dec-06 12:00N 59°18' E 001°30'0 0.0 240 / 24 5.4 9.3 8.5
2017-Dec-06 11:00N 59°18' E 001°30'0 0.0 240 / 22 2.2 9.2 8.6
2017-Dec-06 10:00N 59°18' E 001°30'0 0.0 240 / 21 2.2 9.3 8.8
2017-Dec-06 09:00N 59°18' E 001°30'0 0.0 260 / 23 5.4 9.6 9.2
2017-Dec-06 08:00N 59°18' E 001°30'0 0.0 250 / 24 1.1 9.5 9.1
2017-Dec-06 07:00N 59°18' E 001°30'0 0.0 260 / 23 0.5 9.5 9.1
2017-Dec-06 06:00N 59°18' E 001°30'0 0.0 260 / 22 2.2 9.6 9.1
2017-Dec-06 05:00N 59°18' E 001°30'0 0.0 260 / 24 1.1 9.6 9.1
2017-Dec-06 04:00N 59°18' E 001°30'0 0.0 260 / 26 2.2 9.6 9.0
2017-Dec-06 03:00N 59°18' E 001°30'0 0.0 250 / 25 1.1 9.6 8.9
2017-Dec-06 02:00N 59°18' E 001°30'0 0.0 260 / 26 2.2 9.6 8.9
2017-Dec-06 01:00N 59°18' E 001°30'0 0.0 250 / 26 1.1 9.4 8.7
2017-Dec-06 00:00N 59°18' E 001°30'0 0.0 240 / 28 1.1 9.1 8.4
2017-Dec-05 23:00N 59°18' E 001°30'0 0.0 240 / 28 1.1 8.8 8.0
2017-Dec-05 22:00N 59°18' E 001°30'0 0.0 230 / 28 2.2 8.5 7.6
2017-Dec-05 21:00N 59°18' E 001°30'0 0.0 230 / 24 1.1 8.5 7.4
2017-Dec-05 20:00N 59°18' E 001°30'0 0.0 230 / 25 2.2 8.8 7.4
2017-Dec-05 19:00N 59°18' E 001°30'0 0.0 250 / 27 2.2 9.0 7.5
2017-Dec-05 18:00N 59°18' E 001°30'0 0.0 250 / 23 2.2 9.1 7.6
2017-Dec-05 17:00N 59°18' E 001°30'0 0.0 260 / 23 2.2 9.3 7.7
2017-Dec-05 16:00N 59°18' E 001°30'0 0.0 260 / 23 2.2 9.5 7.8
2017-Dec-05 15:00N 59°18' E 001°30'0 0.0 270 / 27 5.4 9.6 8.0
2017-Dec-05 14:00N 59°18' E 001°30'0 0.0 270 / 31 2.2 9.6 8.0
2017-Dec-05 13:00N 59°18' E 001°30'0 0.0 270 / 31 5.4 9.6 7.9
2017-Dec-05 12:00N 59°18' E 001°30'0 0.0 270 / 33 2.2 9.6 7.7
2017-Dec-05 11:00N 59°18' E 001°30'0 0.0 270 / 32 5.4 9.6 7.7
2017-Dec-05 10:00N 59°18' E 001°30'0 0.0 270 / 31 5.4 9.5 7.8
2017-Dec-05 09:00N 59°18' E 001°30'0 0.0 260 / 31 5.4 9.4 7.9
2017-Dec-05 08:00N 59°18' E 001°30'0 0.0 260 / 27 5.4 9.2 7.8
2017-Dec-05 07:00N 59°18' E 001°30'0 0.0 270 / 28 5.4 8.9 7.5
2017-Dec-05 06:00N 59°18' E 001°30'0 0.0 260 / 28 5.4 9.1 7.7
2017-Dec-05 05:00N 59°18' E 001°30'0 0.0 260 / 26 5.4 9.1 7.7
2017-Dec-05 04:00N 59°18' E 001°30'0 0.0 260 / 25 5.4 9.0 7.7
2017-Dec-05 03:00N 59°18' E 001°30'0 0.0 260 / 24 5.4 9.0 7.6
2017-Dec-05 02:00N 59°18' E 001°30'0 0.0 270 / 23 5.4 8.8 7.4
2017-Dec-05 01:00N 59°18' E 001°30'0 0.0 270 / 23 5.4 8.9 7.4
2017-Dec-05 00:00N 59°18' E 001°30'0 0.0 270 / 22 5.4 9.0 7.3
2017-Dec-04 23:00N 59°18' E 001°30'0 0.0 280 / 24 5.4 8.9 7.3
2017-Dec-04 22:00N 59°18' E 001°30'0 0.0 280 / 24 5.4 8.8 7.1
2017-Dec-04 21:00N 59°18' E 001°30'0 0.0 280 / 25 10.8 8.5 6.9
2017-Dec-04 20:00N 59°18' E 001°30'0 0.0 280 / 26 5.4 8.7 7.1
2017-Dec-04 19:00N 59°18' E 001°30'0 0.0 280 / 24 10.8 8.5 7.1
2017-Dec-04 18:00N 59°18' E 001°30'0 0.0 280 / 25 10.8 8.6 7.5
2017-Dec-04 17:00N 59°18' E 001°30'0 0.0 280 / 24 5.4 8.8 7.8
2017-Dec-04 16:00N 59°18' E 001°30'0 0.0 280 / 23 5.4 8.8 7.6
2017-Dec-04 15:00N 59°18' E 001°30'0 0.0 280 / 20 5.4 8.8 7.5
2017-Dec-04 14:00N 59°18' E 001°30'0 0.0 280 / 21 5.4 8.8 7.4
2017-Dec-04 13:00N 59°18' E 001°30'0 0.0 280 / 22 5.4 8.8 7.4
2017-Dec-04 12:00N 59°18' E 001°30'0 0.0 280 / 21 10.8 8.7 7.4
2017-Dec-04 11:00N 59°18' E 001°30'0 0.0 220 / 8 2.2 8.0 6.2
2017-Dec-04 10:00N 59°18' E 001°30'0 0.0 220 / 6 1.1 7.5 4.9
2017-Dec-04 09:00N 59°18' E 001°30'0 0.0 250 / 10 5.4 8.2 4.6
2017-Dec-04 08:00N 59°18' E 001°30'0 0.0 260 / 9 10.8 8.2 4.2
2017-Dec-04 07:00N 59°18' E 001°30'0 0.0 280 / 11 10.8 8.1 3.9
2017-Dec-04 06:00N 59°18' E 001°30'0 0.0 290 / 12 10.8 7.9 3.8
2017-Dec-04 05:00N 59°18' E 001°30'0 0.0 280 / 12 10.8 7.6 3.0
2017-Dec-04 04:00N 59°18' E 001°30'0 0.0 280 / 11 10.8 7.5 2.4
2017-Dec-04 03:00N 59°18' E 001°30'0 0.0 290 / 11 10.8 7.2 2.5
2017-Dec-04 02:00N 59°18' E 001°30'0 0.0 300 / 9 10.8 6.9 1.8
2017-Dec-04 01:00N 59°18' E 001°30'0 0.0 300 / 10 10.8 6.6 1.0
2017-Dec-04 00:00N 59°18' E 001°30'0 0.0 290 / 11 10.8 6.9 0.1
2017-Dec-03 23:00N 59°18' E 001°30'0 0.0 320 / 12 10.8 6.9-1.5
2017-Dec-03 22:00N 59°18' E 001°30'0 0.0 320 / 15 10.8 6.9-1.5
2017-Dec-03 21:00N 59°18' E 001°30'0 0.0 330 / 18 10.8 6.8-1.6
2017-Dec-03 20:00N 59°18' E 001°30'0 0.0 330 / 20 10.8 6.8-0.9
2017-Dec-03 19:00N 59°18' E 001°30'0 0.0 320 / 22 10.8 6.9-2.2
2017-Dec-03 18:00N 59°18' E 001°30'0 0.0 330 / 20 10.8 6.8-1.7
2017-Dec-03 17:00N 59°18' E 001°30'0 0.0 330 / 22 10.8 6.8-1.2
2017-Dec-03 16:00N 59°18' E 001°30'0 0.0 320 / 26 10.8 6.9-0.5
2017-Dec-03 15:00N 59°18' E 001°30'0 0.0 330 / 25 10.8 6.8-0.6
2017-Dec-03 14:00N 59°18' E 001°30'0 0.0 330 / 24 10.8 6.7 1.3
2017-Dec-03 13:00N 59°18' E 001°30'0 0.0 320 / 26 10.8 7.5 0.1
2017-Dec-03 12:00N 59°18' E 001°30'0 0.0 320 / 26 10.8 7.4 1.0
2017-Dec-03 11:00N 59°18' E 001°30'0 0.0 320 / 20 10.8 7.3 2.6
2017-Dec-03 10:00N 59°18' E 001°30'0 0.0 330 / 19 10.8 6.9 2.8
2017-Dec-03 09:00N 59°18' E 001°30'0 0.0 300 / 18 10.8 7.2 2.6
2017-Dec-03 08:00N 59°18' E 001°30'0 0.0 320 / 14 10.8 6.9 2.8
2017-Dec-03 07:00N 59°18' E 001°30'0 0.0 310 / 17 10.8 7.5 3.2
2017-Dec-03 06:00N 59°18' E 001°30'0 0.0 330 / 18 5.4 7.3 2.6
2017-Dec-03 05:00N 59°18' E 001°30'0 0.0 310 / 21 5.4 7.8 3.3
2017-Dec-03 04:00N 59°18' E 001°30'0 0.0 310 / 25 10.8 7.7 3.3
2017-Dec-03 03:00N 59°18' E 001°30'0 0.0 300 / 22 5.4 8.1 3.6
2017-Dec-03 02:00N 59°18' E 001°30'0 0.0 300 / 22 10.8 8.2 3.3
2017-Dec-03 01:00N 59°18' E 001°30'0 0.0 300 / 20 5.4 8.0 3.1
2017-Dec-03 00:00N 59°18' E 001°30'0 0.0 300 / 22 5.4 8.1 3.1
2017-Dec-02 23:00N 59°18' E 001°30'0 0.0 300 / 24 5.4 8.1 2.2
2017-Dec-02 22:00N 59°18' E 001°30'0 0.0 280 / 22 5.4 8.0 2.5
2017-Dec-02 21:00N 59°18' E 001°30'0 0.0 290 / 21 5.4 8.5 3.3
2017-Dec-02 20:00N 59°18' E 001°30'0 0.0 290 / 19 5.4 8.5 3.3
2017-Dec-02 19:00N 59°18' E 001°30'0 0.0 300 / 20 10.8 8.5 3.9
2017-Dec-02 18:00N 59°18' E 001°30'0 0.0 300 / 18 10.8 8.7 4.1
2017-Dec-02 17:00N 59°18' E 001°30'0 0.0 290 / 21 10.8 8.8 6.7
2017-Dec-02 16:00N 59°18' E 001°30'0 0.0 280 / 20 10.8 8.7 7.7
2017-Dec-02 15:00N 59°18' E 001°30'0 0.0 280 / 20 10.8 8.8 8.1
2017-Dec-02 14:00N 59°18' E 001°30'0 0.0 260 / 18 2.2 8.8 8.1
2017-Dec-02 13:00N 59°18' E 001°30'0 0.0 230 / 14 2.2 8.7 7.9
2017-Dec-02 12:00N 59°18' E 001°30'0 0.0 260 / 17 1.1 8.7 7.9
2017-Dec-02 11:00N 59°18' E 001°30'0 0.0 270 / 16 5.4 8.6 7.8
2017-Dec-02 10:00N 59°18' E 001°30'0 0.0 270 / 19 2.2 8.5 7.6
2017-Dec-02 09:00N 59°18' E 001°30'0 0.0 270 / 18 10.8 8.3 7.5
2017-Dec-02 08:00N 59°18' E 001°30'0 0.0 280 / 21 10.8 8.3 7.6
2017-Dec-02 07:00N 59°18' E 001°30'0 0.0 280 / 21 5.4 8.6 7.9
2017-Dec-02 06:00N 59°18' E 001°30'0 0.0 270 / 16 1.1 8.7 8.0
2017-Dec-02 05:00N 59°18' E 001°30'0 0.0 270 / 15 1.1 8.7 7.8
2017-Dec-02 04:00N 59°18' E 001°30'0 0.0 270 / 12 1.1 8.6 7.6
2017-Dec-02 03:00N 59°18' E 001°30'0 0.0 260 / 11 5.4 8.3 7.0
2017-Dec-02 02:00N 59°18' E 001°30'0 0.0 260 / 10 10.8 8.2 6.8
2017-Dec-02 01:00N 59°18' E 001°30'0 0.0 280 / 12 27.0 8.0 6.6
2017-Dec-02 00:00N 59°18' E 001°30'0 0.0 280 / 13 27.0 8.0 6.4
2017-Dec-01 23:00N 59°18' E 001°30'0 0.0 280 / 13 10.8 8.1 6.4
2017-Dec-01 22:00N 59°18' E 001°30'0 0.0 280 / 14 27.0 8.0 6.3
2017-Dec-01 21:00N 59°18' E 001°30'0 0.0 280 / 15 27.0 7.9 6.1
2017-Dec-01 20:00N 59°18' E 001°30'0 0.0 280 / 15 27.0 8.1 6.1
2017-Dec-01 19:00N 59°18' E 001°30'0 0.0 280 / 14 10.8 8.0 6.4
2017-Dec-01 18:00N 59°18' E 001°30'0 0.0 220 / 13 1.1 7.4 5.3
2017-Dec-01 17:00N 59°18' E 001°30'0 0.0 230 / 11 10.8 7.0 3.5
2017-Dec-01 16:00N 59°18' E 001°30'   220 / 10 27.0 6.6 1.4
Track history (hours):
 
Tides and Currents Weather Stations Pressure Air Temp Water Temp Dewpoint Dewpoint Depression Visibility Wind Speed Wind Dir Waves Ship Positions

Gryphon A

Last reported at 2017-Dec-11 16:00 UTC. Time now 2017-Dec-14 08:13 UTC.
Position N 59°18' E 001°30'.

Length 260 m; draft 13.5 m.

Type: Ship (hazmat cat A). MMSI: 235010630.

Wind from 180 at 12 knots

Air temperature 5.6 ° C
Visibility: greater than 27.0 NM
Dewpoint 0.9 ° C

Date/timePositionNaut miles runAvg speedWind from/ knotsBaromVisibWave heightAir tempDewpointWater temp
2017-Dec-11 16:00N 59°18' E 001°30'0 0.0 180 / 12 27.0 5.6 0.9
2017-Dec-11 15:00N 59°18' E 001°30'0 0.0 170 / 11 27.0 5.5 0.9
2017-Dec-11 14:00N 59°18' E 001°30'0 0.0 160 / 12 27.0 5.7 1.0
2017-Dec-11 13:00N 59°18' E 001°30'0 0.0 170 / 10 27.0 5.8 1.1
2017-Dec-11 12:00N 59°18' E 001°30'0 0.0 180 / 11 27.0 5.7 1.2
2017-Dec-11 11:00N 59°18' E 001°30'0 0.0 170 / 13 27.0 5.2 0.6
2017-Dec-11 10:00N 59°18' E 001°30'0 0.0 190 / 13 27.0 5.9 1.1
2017-Dec-11 09:00N 59°18' E 001°30'0 0.0 180 / 13 27.0 5.6 1.0
2017-Dec-11 08:00N 59°18' E 001°30'0 0.0 170 / 14 27.0 5.6 1.2
2017-Dec-11 07:00N 59°18' E 001°30'0 0.0 180 / 16 27.0 5.7 1.4
2017-Dec-11 06:00N 59°18' E 001°30'0 0.0 190 / 15 27.0 5.6 1.5
2017-Dec-11 05:00N 59°18' E 001°30'0 0.0 180 / 16 27.0 5.6 1.6
2017-Dec-11 04:00N 59°18' E 001°30'0 0.0 190 / 15 27.0 5.4 1.7
2017-Dec-11 03:00N 59°18' E 001°30'0 0.0 200 / 20 27.0 5.0 1.2
2017-Dec-11 02:00N 59°18' E 001°30'0 0.0 190 / 19 10.8 5.2 1.4
2017-Dec-11 01:00N 59°18' E 001°30'0 0.0 190 / 15 27.0 5.2 1.4
2017-Dec-11 00:00N 59°18' E 001°30'0 0.0 190 / 17 27.0 5.2 1.2
2017-Dec-10 23:00N 59°18' E 001°30'0 0.0 190 / 15 27.0 5.2 1.4
2017-Dec-10 22:00N 59°18' E 001°30'0 0.0 200 / 16 27.0 5.0 1.3
2017-Dec-10 21:00N 59°18' E 001°30'0 0.0 210 / 12 27.0 5.0 1.3
2017-Dec-10 20:00N 59°18' E 001°30'0 0.0 170 / 8 2.2 4.9 1.0
2017-Dec-10 19:00N 59°18' E 001°30'0 0.0 200 / 7 27.0 5.2 1.1
2017-Dec-10 18:00N 59°18' E 001°30'0 0.0 180 / 7 27.0 5.3 1.2
2017-Dec-10 17:00N 59°18' E 001°30'0 0.0 180 / 8 27.0 5.2 0.9
2017-Dec-10 16:00N 59°18' E 001°30'0 0.0 210 / 4 27.0 4.5 0.2
2017-Dec-10 15:00N 59°18' E 001°30'0 0.0 210 / 6 27.0 4.8 0.4
2017-Dec-10 14:00N 59°18' E 001°30'0 0.0 220 / 6 27.0 4.9 0.4
2017-Dec-10 13:00N 59°18' E 001°30'0 0.0 220 / 7 27.0 4.7 0.4
2017-Dec-10 12:00N 59°18' E 001°30'0 0.0 240 / 8 27.0 4.5 0.7
2017-Dec-10 11:00N 59°18' E 001°30'0 0.0 260 / 9 27.0 4.4 1.0
2017-Dec-10 10:00N 59°18' E 001°30'0 0.0 230 / 10 27.0 4.4 1.3
2017-Dec-10 09:00N 59°18' E 001°30'0 0.0 230 / 11 27.0 4.4 1.4
2017-Dec-10 08:00N 59°18' E 001°30'0 0.0 240 / 11 27.0 4.1 1.2
2017-Dec-10 07:00N 59°18' E 001°30'0 0.0 260 / 8 1.1 3.3 0.2
2017-Dec-10 06:00N 59°18' E 001°30'0 0.0 270 / 18 2.2 3.1-0.3
2017-Dec-10 05:00N 59°18' E 001°30'0 0.0 230 / 17 10.8 3.1-0.5
2017-Dec-10 04:00N 59°18' E 001°30'0 0.0 260 / 18 27.0 3.3-0.6
2017-Dec-10 03:00N 59°18' E 001°30'0 0.0 270 / 22 10.8 3.3-0.9
2017-Dec-10 02:00N 59°18' E 001°30'0 0.0 270 / 18 27.0 3.4-1.0
2017-Dec-10 01:00N 59°18' E 001°30'0 0.0 260 / 19 27.0 3.3-1.2
2017-Dec-10 00:00N 59°18' E 001°30'0 0.0 280 / 21 27.0 2.9-1.6
2017-Dec-09 23:00N 59°18' E 001°30'0 0.0 300 / 19 27.0 3.1-1.8
2017-Dec-09 22:00N 59°18' E 001°30'0 0.0 300 / 20 27.0 3.4-1.4
2017-Dec-09 21:00N 59°18' E 001°30'0 0.0 280 / 13 27.0 2.7-1.7
2017-Dec-09 20:00N 59°18' E 001°30'0 0.0 290 / 14 1.1 2.2-2.3
2017-Dec-09 19:00N 59°18' E 001°30'0 0.0 320 / 25 1.1 2.1-3.4
2017-Dec-09 18:00N 59°18' E 001°30'0 0.0 320 / 22 27.0 2.4-3.3
2017-Dec-09 17:00N 59°18' E 001°30'0 0.0 290 / 23 10.8 2.9-2.7
2017-Dec-09 16:00N 59°18' E 001°30'0 0.0 330 / 22 10.8 3.4-2.1
2017-Dec-09 15:00N 59°18' E 001°30'0 0.0 310 / 24 10.8 3.8-1.4
2017-Dec-09 14:00N 59°18' E 001°30'0 0.0 320 / 24 10.8 3.6-1.1
2017-Dec-09 13:00N 59°18' E 001°30'0 0.0 310 / 28 10.8 3.5-0.9
2017-Dec-09 12:00N 59°18' E 001°30'0 0.0 330 / 30 10.8 2.5-1.6
2017-Dec-09 11:00N 59°18' E 001°30'0 0.0 310 / 27 10.8 2.9-1.2
2017-Dec-09 10:00N 59°18' E 001°30'0 0.0 340 / 28 2.2 2.9-1.6
2017-Dec-09 09:00N 59°18' E 001°30'0 0.0 330 / 27 10.8 3.2-1.2
2017-Dec-09 08:00N 59°18' E 001°30'0 0.0 310 / 25 10.8 2.8-1.5
2017-Dec-09 07:00N 59°18' E 001°30'0 0.0 330 / 26 10.8 3.5-0.8
2017-Dec-09 06:00N 59°18' E 001°30'0 0.0 300 / 32 10.8 3.4-1.0
2017-Dec-09 05:00N 59°18' E 001°30'0 0.0 320 / 31 5.4 3.2-1.1
2017-Dec-09 04:00N 59°18' E 001°30'0 0.0 330 / 33 5.4 3.7-0.5
2017-Dec-09 03:00N 59°18' E 001°30'0 0.0 330 / 30 2.2 3.1-0.9
2017-Dec-09 02:00N 59°18' E 001°30'0 0.0 330 / 29 10.8 4.0-0.3
2017-Dec-09 01:00N 59°18' E 001°30'0 0.0 330 / 32 10.8 4.6-0.1
2017-Dec-09 00:00N 59°18' E 001°30'0 0.0 320 / 33 10.8 5.1 0.3
2017-Dec-08 23:00N 59°18' E 001°30'0 0.0 330 / 35 10.8 4.9 0.4
2017-Dec-08 22:00N 59°18' E 001°30'0 0.0 330 / 39 5.4 4.9 0.3
2017-Dec-08 21:00N 59°18' E 001°30'0 0.0 330 / 39 2.2 4.2-0.3
2017-Dec-08 20:00N 59°18' E 001°30'0 0.0 330 / 37 5.4 6.0 1.5
2017-Dec-08 19:00N 59°18' E 001°30'0 0.0 340 / 37 5.4 5.9 1.5
2017-Dec-08 18:00N 59°18' E 001°30'0 0.0 330 / 35 5.4 6.1 1.9
2017-Dec-08 17:00N 59°18' E 001°30'0 0.0 340 / 28 5.4 5.1 1.0
2017-Dec-08 16:00N 59°18' E 001°30'0 0.0 340 / 29 10.8 5.4 1.4
2017-Dec-08 15:00N 59°18' E 001°30'0 0.0 320 / 30 5.4 6.0 2.0
2017-Dec-08 14:00N 59°18' E 001°30'0 0.0 320 / 36 5.4 5.5 1.5
2017-Dec-08 13:00N 59°18' E 001°30'0 0.0 330 / 31 10.8 5.6 1.5
2017-Dec-08 12:00N 59°18' E 001°30'0 0.0 300 / 33 10.8 5.2 1.0
2017-Dec-08 11:00N 59°18' E 001°30'0 0.0 300 / 37 5.4 5.4 1.3
2017-Dec-08 10:00N 59°18' E 001°30'0 0.0 300 / 39 5.4 4.8 0.8
2017-Dec-08 09:00N 59°18' E 001°30'0 0.0 300 / 44 5.4 5.0 1.4
2017-Dec-08 08:00N 59°18' E 001°30'0 0.0 310 / 44 2.2 4.3 1.8
2017-Dec-08 07:00N 59°18' E 001°30'0 0.0 330 / 41 1.1 3.0 1.1
2017-Dec-08 06:00N 59°18' E 001°30'0 0.0 320 / 45 2.2 4.2 1.6
2017-Dec-08 05:00N 59°18' E 001°30'0 0.0 320 / 39 2.2 4.1-0.0
2017-Dec-08 04:00N 59°18' E 001°30'0 0.0 310 / 34 5.4 5.2 1.1
2017-Dec-08 03:00N 59°18' E 001°30'0 0.0 300 / 34 5.4 5.0 0.9
2017-Dec-08 02:00N 59°18' E 001°30'0 0.0 300 / 37 5.4 4.7 0.3
2017-Dec-08 01:00N 59°18' E 001°30'0 0.0 300 / 39 2.2 5.2 1.1
2017-Dec-08 00:00N 59°18' E 001°30'0 0.0 300 / 37 5.4 4.8 1.7
2017-Dec-07 23:00N 59°18' E 001°30'0 0.0 300 / 41 5.4 4.7 2.4
2017-Dec-07 22:00N 59°18' E 001°30'0 0.0 300 / 44 2.2 5.2 3.7
2017-Dec-07 21:00N 59°18' E 001°30'0 0.0 300 / 45 2.2 5.4 3.5
2017-Dec-07 20:00N 59°18' E 001°30'0 0.0 300 / 52 2.2 4.9 3.8
2017-Dec-07 19:00N 59°18' E 001°30'0 0.0 310 / 51 0.5 5.3 3.0
2017-Dec-07 18:00N 59°18' E 001°30'0 0.0 300 / 47 1.1 5.6 3.1
2017-Dec-07 17:00N 59°18' E 001°30'0 0.0 280 / 45 2.2 6.1 3.4
2017-Dec-07 16:00N 59°18' E 001°30'0 0.0 260 / 38 10.8 6.6 2.7
2017-Dec-07 15:00N 59°18' E 001°30'0 0.0 260 / 31 10.8 7.1 2.6
2017-Dec-07 14:00N 59°18' E 001°30'0 0.0 250 / 37 5.4 7.2 3.6
2017-Dec-07 13:00N 59°18' E 001°30'0 0.0 230 / 40 2.2 7.3 4.2
2017-Dec-07 12:00N 59°18' E 001°30'0 0.0 220 / 46 1.1 6.9 2.8
2017-Dec-07 11:00N 59°18' E 001°30'0 0.0 220 / 44 2.2 7.7 2.2
2017-Dec-07 10:00N 59°18' E 001°30'0 0.0 230 / 42 27.0 8.5 3.6
2017-Dec-07 09:00N 59°18' E 001°30'0 0.0 210 / 38 5.4 8.3 3.2
2017-Dec-07 08:00N 59°18' E 001°30'0 0.0 240 / 32 5.4 7.9 5.9
2017-Dec-07 07:00N 59°18' E 001°30'0 0.0 250 / 26 5.4 8.3 7.2
2017-Dec-07 06:00N 59°18' E 001°30'0 0.0 230 / 32 2.2 10.0 9.0
2017-Dec-07 05:00N 59°18' E 001°30'0 0.0 210 / 37 1.1 10.3 9.1
2017-Dec-07 04:00N 59°18' E 001°30'0 0.0 200 / 36 1.1 10.3 9.0
2017-Dec-07 03:00N 59°18' E 001°30'0 0.0 200 / 35 1.1 10.1 8.7
2017-Dec-07 02:00N 59°18' E 001°30'0 0.0 200 / 33 2.2 10.1 8.7
2017-Dec-07 01:00N 59°18' E 001°30'0 0.0 210 / 31 2.2 10.0 8.6
2017-Dec-07 00:00N 59°18' E 001°30'0 0.0 210 / 33 2.2 10.0 8.6
2017-Dec-06 23:00N 59°18' E 001°30'0 0.0 210 / 30 2.2 9.8 8.5
2017-Dec-06 22:00N 59°18' E 001°30'0 0.0 210 / 31 1.1 9.7 8.2
2017-Dec-06 21:00N 59°18' E 001°30'0 0.0 210 / 33 5.4 9.9 8.2
2017-Dec-06 20:00N 59°18' E 001°30'0 0.0 220 / 30 5.4 9.6 8.0
2017-Dec-06 19:00N 59°18' E 001°30'0 0.0 220 / 28 2.2 9.5 7.9
2017-Dec-06 18:00N 59°18' E 001°30'0 0.0 220 / 26 2.2 9.3 7.8
2017-Dec-06 17:00N 59°18' E 001°30'0 0.0 210 / 27 5.4 9.2 7.8
2017-Dec-06 16:00N 59°18' E 001°30'0 0.0 210 / 25 5.4 9.0 7.7
2017-Dec-06 15:00N 59°18' E 001°30'0 0.0 220 / 24 5.4 9.1 7.9
2017-Dec-06 14:00N 59°18' E 001°30'0 0.0 220 / 24 2.2 9.1 8.1
2017-Dec-06 13:00N 59°18' E 001°30'0 0.0 230 / 20 5.4 9.1 8.2
2017-Dec-06 12:00N 59°18' E 001°30'0 0.0 240 / 24 5.4 9.3 8.5
2017-Dec-06 11:00N 59°18' E 001°30'0 0.0 240 / 22 2.2 9.2 8.6
2017-Dec-06 10:00N 59°18' E 001°30'0 0.0 240 / 21 2.2 9.3 8.8
2017-Dec-06 09:00N 59°18' E 001°30'0 0.0 260 / 23 5.4 9.6 9.2
2017-Dec-06 08:00N 59°18' E 001°30'0 0.0 250 / 24 1.1 9.5 9.1
2017-Dec-06 07:00N 59°18' E 001°30'0 0.0 260 / 23 0.5 9.5 9.1
2017-Dec-06 06:00N 59°18' E 001°30'0 0.0 260 / 22 2.2 9.6 9.1
2017-Dec-06 05:00N 59°18' E 001°30'0 0.0 260 / 24 1.1 9.6 9.1
2017-Dec-06 04:00N 59°18' E 001°30'0 0.0 260 / 26 2.2 9.6 9.0
2017-Dec-06 03:00N 59°18' E 001°30'0 0.0 250 / 25 1.1 9.6 8.9
2017-Dec-06 02:00N 59°18' E 001°30'0 0.0 260 / 26 2.2 9.6 8.9
2017-Dec-06 01:00N 59°18' E 001°30'0 0.0 250 / 26 1.1 9.4 8.7
2017-Dec-06 00:00N 59°18' E 001°30'0 0.0 240 / 28 1.1 9.1 8.4
2017-Dec-05 23:00N 59°18' E 001°30'0 0.0 240 / 28 1.1 8.8 8.0
2017-Dec-05 22:00N 59°18' E 001°30'0 0.0 230 / 28 2.2 8.5 7.6
2017-Dec-05 21:00N 59°18' E 001°30'0 0.0 230 / 24 1.1 8.5 7.4
2017-Dec-05 20:00N 59°18' E 001°30'0 0.0 230 / 25 2.2 8.8 7.4
2017-Dec-05 19:00N 59°18' E 001°30'0 0.0 250 / 27 2.2 9.0 7.5
2017-Dec-05 18:00N 59°18' E 001°30'0 0.0 250 / 23 2.2 9.1 7.6
2017-Dec-05 17:00N 59°18' E 001°30'0 0.0 260 / 23 2.2 9.3 7.7
2017-Dec-05 16:00N 59°18' E 001°30'0 0.0 260 / 23 2.2 9.5 7.8
2017-Dec-05 15:00N 59°18' E 001°30'0 0.0 270 / 27 5.4 9.6 8.0
2017-Dec-05 14:00N 59°18' E 001°30'0 0.0 270 / 31 2.2 9.6 8.0
2017-Dec-05 13:00N 59°18' E 001°30'0 0.0 270 / 31 5.4 9.6 7.9
2017-Dec-05 12:00N 59°18' E 001°30'0 0.0 270 / 33 2.2 9.6 7.7
2017-Dec-05 11:00N 59°18' E 001°30'0 0.0 270 / 32 5.4 9.6 7.7
2017-Dec-05 10:00N 59°18' E 001°30'0 0.0 270 / 31 5.4 9.5 7.8
2017-Dec-05 09:00N 59°18' E 001°30'0 0.0 260 / 31 5.4 9.4 7.9
2017-Dec-05 08:00N 59°18' E 001°30'0 0.0 260 / 27 5.4 9.2 7.8
2017-Dec-05 07:00N 59°18' E 001°30'0 0.0 270 / 28 5.4 8.9 7.5
2017-Dec-05 06:00N 59°18' E 001°30'0 0.0 260 / 28 5.4 9.1 7.7
2017-Dec-05 05:00N 59°18' E 001°30'0 0.0 260 / 26 5.4 9.1 7.7
2017-Dec-05 04:00N 59°18' E 001°30'0 0.0 260 / 25 5.4 9.0 7.7
2017-Dec-05 03:00N 59°18' E 001°30'0 0.0 260 / 24 5.4 9.0 7.6
2017-Dec-05 02:00N 59°18' E 001°30'0 0.0 270 / 23 5.4 8.8 7.4
2017-Dec-05 01:00N 59°18' E 001°30'0 0.0 270 / 23 5.4 8.9 7.4
2017-Dec-05 00:00N 59°18' E 001°30'0 0.0 270 / 22 5.4 9.0 7.3
2017-Dec-04 23:00N 59°18' E 001°30'0 0.0 280 / 24 5.4 8.9 7.3
2017-Dec-04 22:00N 59°18' E 001°30'0 0.0 280 / 24 5.4 8.8 7.1
2017-Dec-04 21:00N 59°18' E 001°30'0 0.0 280 / 25 10.8 8.5 6.9
2017-Dec-04 20:00N 59°18' E 001°30'0 0.0 280 / 26 5.4 8.7 7.1
2017-Dec-04 19:00N 59°18' E 001°30'0 0.0 280 / 24 10.8 8.5 7.1
2017-Dec-04 18:00N 59°18' E 001°30'0 0.0 280 / 25 10.8 8.6 7.5
2017-Dec-04 17:00N 59°18' E 001°30'0 0.0 280 / 24 5.4 8.8 7.8
2017-Dec-04 16:00N 59°18' E 001°30'0 0.0 280 / 23 5.4 8.8 7.6
2017-Dec-04 15:00N 59°18' E 001°30'0 0.0 280 / 20 5.4 8.8 7.5
2017-Dec-04 14:00N 59°18' E 001°30'0 0.0 280 / 21 5.4 8.8 7.4
2017-Dec-04 13:00N 59°18' E 001°30'0 0.0 280 / 22 5.4 8.8 7.4
2017-Dec-04 12:00N 59°18' E 001°30'0 0.0 280 / 21 10.8 8.7 7.4
2017-Dec-04 11:00N 59°18' E 001°30'0 0.0 220 / 8 2.2 8.0 6.2
2017-Dec-04 10:00N 59°18' E 001°30'0 0.0 220 / 6 1.1 7.5 4.9
2017-Dec-04 09:00N 59°18' E 001°30'0 0.0 250 / 10 5.4 8.2 4.6
2017-Dec-04 08:00N 59°18' E 001°30'0 0.0 260 / 9 10.8 8.2 4.2
2017-Dec-04 07:00N 59°18' E 001°30'0 0.0 280 / 11 10.8 8.1 3.9
2017-Dec-04 06:00N 59°18' E 001°30'0 0.0 290 / 12 10.8 7.9 3.8
2017-Dec-04 05:00N 59°18' E 001°30'0 0.0 280 / 12 10.8 7.6 3.0
2017-Dec-04 04:00N 59°18' E 001°30'0 0.0 280 / 11 10.8 7.5 2.4
2017-Dec-04 03:00N 59°18' E 001°30'0 0.0 290 / 11 10.8 7.2 2.5
2017-Dec-04 02:00N 59°18' E 001°30'0 0.0 300 / 9 10.8 6.9 1.8
2017-Dec-04 01:00N 59°18' E 001°30'0 0.0 300 / 10 10.8 6.6 1.0
2017-Dec-04 00:00N 59°18' E 001°30'0 0.0 290 / 11 10.8 6.9 0.1
2017-Dec-03 23:00N 59°18' E 001°30'0 0.0 320 / 12 10.8 6.9-1.5
2017-Dec-03 22:00N 59°18' E 001°30'0 0.0 320 / 15 10.8 6.9-1.5
2017-Dec-03 21:00N 59°18' E 001°30'0 0.0 330 / 18 10.8 6.8-1.6
2017-Dec-03 20:00N 59°18' E 001°30'0 0.0 330 / 20 10.8 6.8-0.9
2017-Dec-03 19:00N 59°18' E 001°30'0 0.0 320 / 22 10.8 6.9-2.2
2017-Dec-03 18:00N 59°18' E 001°30'0 0.0 330 / 20 10.8 6.8-1.7
2017-Dec-03 17:00N 59°18' E 001°30'0 0.0 330 / 22 10.8 6.8-1.2
2017-Dec-03 16:00N 59°18' E 001°30'0 0.0 320 / 26 10.8 6.9-0.5
2017-Dec-03 15:00N 59°18' E 001°30'0 0.0 330 / 25 10.8 6.8-0.6
2017-Dec-03 14:00N 59°18' E 001°30'0 0.0 330 / 24 10.8 6.7 1.3
2017-Dec-03 13:00N 59°18' E 001°30'0 0.0 320 / 26 10.8 7.5 0.1
2017-Dec-03 12:00N 59°18' E 001°30'0 0.0 320 / 26 10.8 7.4 1.0
2017-Dec-03 11:00N 59°18' E 001°30'0 0.0 320 / 20 10.8 7.3 2.6
2017-Dec-03 10:00N 59°18' E 001°30'0 0.0 330 / 19 10.8 6.9 2.8
2017-Dec-03 09:00N 59°18' E 001°30'0 0.0 300 / 18 10.8 7.2 2.6
2017-Dec-03 08:00N 59°18' E 001°30'0 0.0 320 / 14 10.8 6.9 2.8
2017-Dec-03 07:00N 59°18' E 001°30'0 0.0 310 / 17 10.8 7.5 3.2
2017-Dec-03 06:00N 59°18' E 001°30'0 0.0 330 / 18 5.4 7.3 2.6
2017-Dec-03 05:00N 59°18' E 001°30'0 0.0 310 / 21 5.4 7.8 3.3
2017-Dec-03 04:00N 59°18' E 001°30'0 0.0 310 / 25 10.8 7.7 3.3
2017-Dec-03 03:00N 59°18' E 001°30'0 0.0 300 / 22 5.4 8.1 3.6
2017-Dec-03 02:00N 59°18' E 001°30'0 0.0 300 / 22 10.8 8.2 3.3
2017-Dec-03 01:00N 59°18' E 001°30'0 0.0 300 / 20 5.4 8.0 3.1
2017-Dec-03 00:00N 59°18' E 001°30'0 0.0 300 / 22 5.4 8.1 3.1
2017-Dec-02 23:00N 59°18' E 001°30'0 0.0 300 / 24 5.4 8.1 2.2
2017-Dec-02 22:00N 59°18' E 001°30'0 0.0 280 / 22 5.4 8.0 2.5
2017-Dec-02 21:00N 59°18' E 001°30'0 0.0 290 / 21 5.4 8.5 3.3
2017-Dec-02 20:00N 59°18' E 001°30'0 0.0 290 / 19 5.4 8.5 3.3
2017-Dec-02 19:00N 59°18' E 001°30'0 0.0 300 / 20 10.8 8.5 3.9
2017-Dec-02 18:00N 59°18' E 001°30'0 0.0 300 / 18 10.8 8.7 4.1
2017-Dec-02 17:00N 59°18' E 001°30'0 0.0 290 / 21 10.8 8.8 6.7
2017-Dec-02 16:00N 59°18' E 001°30'0 0.0 280 / 20 10.8 8.7 7.7
2017-Dec-02 15:00N 59°18' E 001°30'0 0.0 280 / 20 10.8 8.8 8.1
2017-Dec-02 14:00N 59°18' E 001°30'0 0.0 260 / 18 2.2 8.8 8.1
2017-Dec-02 13:00N 59°18' E 001°30'0 0.0 230 / 14 2.2 8.7 7.9
2017-Dec-02 12:00N 59°18' E 001°30'0 0.0 260 / 17 1.1 8.7 7.9
2017-Dec-02 11:00N 59°18' E 001°30'0 0.0 270 / 16 5.4 8.6 7.8
2017-Dec-02 10:00N 59°18' E 001°30'0 0.0 270 / 19 2.2 8.5 7.6
2017-Dec-02 09:00N 59°18' E 001°30'0 0.0 270 / 18 10.8 8.3 7.5
2017-Dec-02 08:00N 59°18' E 001°30'0 0.0 280 / 21 10.8 8.3 7.6
2017-Dec-02 07:00N 59°18' E 001°30'0 0.0 280 / 21 5.4 8.6 7.9
2017-Dec-02 06:00N 59°18' E 001°30'0 0.0 270 / 16 1.1 8.7 8.0
2017-Dec-02 05:00N 59°18' E 001°30'0 0.0 270 / 15 1.1 8.7 7.8
2017-Dec-02 04:00N 59°18' E 001°30'0 0.0 270 / 12 1.1 8.6 7.6
2017-Dec-02 03:00N 59°18' E 001°30'0 0.0 260 / 11 5.4 8.3 7.0
2017-Dec-02 02:00N 59°18' E 001°30'0 0.0 260 / 10 10.8 8.2 6.8
2017-Dec-02 01:00N 59°18' E 001°30'0 0.0 280 / 12 27.0 8.0 6.6
2017-Dec-02 00:00N 59°18' E 001°30'0 0.0 280 / 13 27.0 8.0 6.4
2017-Dec-01 23:00N 59°18' E 001°30'0 0.0 280 / 13 10.8 8.1 6.4
2017-Dec-01 22:00N 59°18' E 001°30'0 0.0 280 / 14 27.0 8.0 6.3
2017-Dec-01 21:00N 59°18' E 001°30'0 0.0 280 / 15 27.0 7.9 6.1
2017-Dec-01 20:00N 59°18' E 001°30'0 0.0 280 / 15 27.0 8.1 6.1
2017-Dec-01 19:00N 59°18' E 001°30'0 0.0 280 / 14 10.8 8.0 6.4
2017-Dec-01 18:00N 59°18' E 001°30'0 0.0 220 / 13 1.1 7.4 5.3
2017-Dec-01 17:00N 59°18' E 001°30'0 0.0 230 / 11 10.8 7.0 3.5
2017-Dec-01 16:00N 59°18' E 001°30'   220 / 10 27.0 6.6 1.4

Dump ship's entire track history